»·PEaware :: JIMMY20 KSPS-KSPS

JIMMY20 :: KSPS-KSPS

FLIGHT INFORMATION

Flight Status: Arrived
Operator: Unknown
More flights by this operator :: More flights under this callsign
Pilot: 80 FTW ENJJPT (22981)
Aircraft: Unknown
(T-38)
More flights by this aircraft type
Origin: KSPS Sheppard AFB/Wichita Falls Mu
United States
Destination: KSPS Sheppard AFB/Wichita Falls Mu
United States
More flights between these airports :: More routes between these airports
Route: +
File this flight plan on PilotEdge
Remarks:
Altitude:
(Current/Filed)
0ft
Speed:
(Current/Filed)
0kts
Departed: 06-Aug-20 10:22 AM
Arrived: 06-Aug-20 10:55 AM
Distance/Time
Traveled:
2nm/0:33
Distance/Time
To Go:
Arrived

Flight Plot

Page will automatically refresh every two minutes.

Flight plan parsing failed; only flown route is shown


Map Options




Map Legend


Flown Route
Filed Route
Departure Airport
Arrival Airport
Navaid (VOR, NDB)
Fix

Horizontal Profiles

Position Reports

Time Latitude Longitude Heading Altitude Ground
Speed
06-Aug-20 10:21 33.824103 -98.511852 301 4977ft 313kts
06-Aug-20 10:21 33.869044 -98.584482 308 5021ft 330kts
06-Aug-20 10:22 33.940362 -98.645473 350 3758ft 329kts
06-Aug-20 10:23 34.029409 -98.659427 353 3392ft 322kts
06-Aug-20 10:24 34.116316 -98.673114 352 3284ft 310kts
06-Aug-20 10:25 34.182816 -98.651412 84 2329ft 241kts
06-Aug-20 10:26 34.174519 -98.575200 160 2504ft 229kts
06-Aug-20 10:27 34.113412 -98.547549 158 2286ft 229kts
06-Aug-20 10:28 34.060989 -98.523599 159 2055ft 191kts
06-Aug-20 10:29 34.011526 -98.499802 158 1130ft 192kts
06-Aug-20 10:30 33.952518 -98.470745 157 1803ft 252kts
06-Aug-20 10:31 33.876229 -98.433122 169 4900ft 320kts
06-Aug-20 10:32 33.818808 -98.499107 273 8901ft 353kts
06-Aug-20 10:33 33.821042 -98.616987 270 13022ft 362kts
06-Aug-20 10:34 33.822626 -98.740979 271 16137ft 389kts
06-Aug-20 10:35 33.822691 -98.744985 271 16113ft 388kts
06-Aug-20 10:36 33.823474 -98.787274 271 15864ft 345kts
06-Aug-20 10:37 33.826505 -98.900831 271 16008ft 357kts
06-Aug-20 10:38 33.819982 -99.024410 249 16043ft 369kts
06-Aug-20 10:39 33.739881 -99.091620 193 15903ft 384kts
06-Aug-20 10:40 33.634527 -99.117195 188 19086ft 390kts
06-Aug-20 10:41 33.565533 -99.086989 13 13548ft 515kts
06-Aug-20 10:42 33.550940 -99.136436 198 10948ft 476kts
06-Aug-20 10:43 33.555947 -99.068792 359 10122ft 548kts
06-Aug-20 10:44 33.533138 -99.070542 181 18818ft 291kts
06-Aug-20 10:45 33.608695 -99.068262 1 9749ft 561kts
06-Aug-20 10:46 33.564640 -99.090597 196 14548ft 87kts
06-Aug-20 10:47 33.655878 -99.077701 19 14834ft 462kts
06-Aug-20 10:48 33.695555 -98.982046 146 15921ft 393kts
06-Aug-20 10:49 33.631925 -99.040770 292 15983ft 384kts
06-Aug-20 10:50 33.695199 -99.119291 264 16315ft 249kts
06-Aug-20 10:51 33.653083 -99.161448 139 14194ft 232kts
06-Aug-20 10:52 33.617224 -99.116366 129 13526ft 236kts
06-Aug-20 10:53 33.639665 -99.060691 29 12231ft 222kts
06-Aug-20 10:54 34.006197 -98.498496 142 1027ft 0kts
06-Aug-20 10:55 34.006196 -98.498495 142 1027ft 0kts
06-Aug-20 10:56 34.005914 -98.496867 150 1027ft 1kts
06-Aug-20 10:57 33.962038 -98.476597 161 1550ft 280kts
06-Aug-20 10:58 33.940893 -98.536343 340 2714ft 304kts
06-Aug-20 10:59 34.013133 -98.588401 261 4127ft 307kts
06-Aug-20 11:00 33.997316 -98.686915 329 4002ft 299kts
06-Aug-20 11:01 34.086310 -98.689705 13 3472ft 307kts
06-Aug-20 11:02 34.135107 -98.611811 62 2848ft 319kts
06-Aug-20 11:03 34.091576 -98.542928 156 2289ft 252kts
06-Aug-20 11:04 34.040973 -98.517508 157 1668ft 186kts
06-Aug-20 11:05 33.993491 -98.494462 157 1028ft 146kts
06-Aug-20 11:06 33.959781 -98.502133 339 2581ft 227kts
06-Aug-20 11:07 34.011561 -98.532176 336 2884ft 210kts
06-Aug-20 11:08 34.001836 -98.498497 158 1033ft 172kts
06-Aug-20 11:09 33.958550 -98.499025 315 2594ft 234kts

Navigation Log

Ident Type
Flight plan parsing failed, navigation log unavailable